sensor_id;sensor_type;location;lat;lon;timestamp;temperature;humidity
63383;DHT22;49512;48.744;9.176;2023-04-03T00:02:11;14.70;98.30
63383;DHT22;49512;48.744;9.176;2023-04-03T00:04:36;14.70;98.80
63383;DHT22;49512;48.744;9.176;2023-04-03T00:07:02;14.70;98.40
63383;DHT22;49512;48.744;9.176;2023-04-03T00:09:27;14.70;98.30
63383;DHT22;49512;48.744;9.176;2023-04-03T00:11:53;14.70;98.80
63383;DHT22;49512;48.744;9.176;2023-04-03T00:14:18;14.80;98.80
63383;DHT22;49512;48.744;9.176;2023-04-03T00:16:44;14.70;98.30
63383;DHT22;49512;48.744;9.176;2023-04-03T00:19:09;14.70;98.30
63383;DHT22;49512;48.744;9.176;2023-04-03T00:21:38;14.70;98.30
63383;DHT22;49512;48.744;9.176;2023-04-03T00:24:04;14.70;98.30
63383;DHT22;49512;48.744;9.176;2023-04-03T00:26:29;14.60;98.40
63383;DHT22;49512;48.744;9.176;2023-04-03T00:28:55;14.70;98.30
63383;DHT22;49512;48.744;9.176;2023-04-03T00:31:21;15.30;99.00
63383;DHT22;49512;48.744;9.176;2023-04-03T00:33:46;14.60;98.30
63383;DHT22;49512;48.744;9.176;2023-04-03T00:36:12;14.60;98.20
63383;DHT22;49512;48.744;9.176;2023-04-03T00:38:37;14.70;98.30
63383;DHT22;49512;48.744;9.176;2023-04-03T00:41:03;14.60;98.20
63383;DHT22;49512;48.744;9.176;2023-04-03T00:43:29;14.70;98.30
63383;DHT22;49512;48.744;9.176;2023-04-03T00:45:55;14.60;98.20
63383;DHT22;49512;48.744;9.176;2023-04-03T00:48:22;14.70;98.30
63383;DHT22;49512;48.744;9.176;2023-04-03T00:50:48;14.70;98.20
63383;DHT22;49512;48.744;9.176;2023-04-03T00:53:16;14.60;98.20
63383;DHT22;49512;48.744;9.176;2023-04-03T00:55:43;14.70;98.30
63383;DHT22;49512;48.744;9.176;2023-04-03T00:58:09;14.60;98.40
63383;DHT22;49512;48.744;9.176;2023-04-03T01:00:36;14.60;98.40
63383;DHT22;49512;48.744;9.176;2023-04-03T01:03:03;14.60;98.50
63383;DHT22;49512;48.744;9.176;2023-04-03T01:05:29;14.60;98.50
63383;DHT22;49512;48.744;9.176;2023-04-03T01:07:55;14.60;98.50
63383;DHT22;49512;48.744;9.176;2023-04-03T01:10:21;14.60;98.50
63383;DHT22;49512;48.744;9.176;2023-04-03T01:12:48;14.60;98.60
63383;DHT22;49512;48.744;9.176;2023-04-03T01:15:21;15.10;99.10
63383;DHT22;49512;48.744;9.176;2023-04-03T01:25:10;14.60;99.00
63383;DHT22;49512;48.744;9.176;2023-04-03T01:27:36;14.50;98.70
63383;DHT22;49512;48.744;9.176;2023-04-03T01:30:01;14.60;98.70
63383;DHT22;49512;48.744;9.176;2023-04-03T01:32:27;14.50;98.70
63383;DHT22;49512;48.744;9.176;2023-04-03T01:34:53;14.60;98.70
63383;DHT22;49512;48.744;9.176;2023-04-03T01:37:18;14.60;98.60
63383;DHT22;49512;48.744;9.176;2023-04-03T01:39:44;14.60;98.60
63383;DHT22;49512;48.744;9.176;2023-04-03T01:42:09;14.60;98.70
63383;DHT22;49512;48.744;9.176;2023-04-03T01:44:36;14.60;98.60
63383;DHT22;49512;48.744;9.176;2023-04-03T01:47:02;14.60;98.60
63383;DHT22;49512;48.744;9.176;2023-04-03T01:49:27;14.60;98.70
63383;DHT22;49512;48.744;9.176;2023-04-03T01:51:53;14.60;98.70
63383;DHT22;49512;48.744;9.176;2023-04-03T01:54:18;14.60;98.60
63383;DHT22;49512;48.744;9.176;2023-04-03T01:56:44;14.50;98.50
63383;DHT22;49512;48.744;9.176;2023-04-03T01:59:09;14.60;98.50
63383;DHT22;49512;48.744;9.176;2023-04-03T02:01:35;14.50;98.50
63383;DHT22;49512;48.744;9.176;2023-04-03T02:04:01;14.50;98.50
63383;DHT22;49512;48.744;9.176;2023-04-03T02:06:26;14.50;98.50
63383;DHT22;49512;48.744;9.176;2023-04-03T02:08:52;14.60;98.50
63383;DHT22;49512;48.744;9.176;2023-04-03T02:11:17;14.50;98.50
63383;DHT22;49512;48.744;9.176;2023-04-03T02:13:43;14.50;98.50
63383;DHT22;49512;48.744;9.176;2023-04-03T02:16:09;14.50;98.50
63383;DHT22;49512;48.744;9.176;2023-04-03T02:18:38;14.50;98.40
63383;DHT22;49512;48.744;9.176;2023-04-03T02:21:03;14.50;98.40
63383;DHT22;49512;48.744;9.176;2023-04-03T02:23:29;14.50;98.50
63383;DHT22;49512;48.744;9.176;2023-04-03T02:26:02;14.50;98.40
63383;DHT22;49512;48.744;9.176;2023-04-03T02:28:27;14.50;98.40
63383;DHT22;49512;48.744;9.176;2023-04-03T02:30:53;14.50;98.40
63383;DHT22;49512;48.744;9.176;2023-04-03T02:33:18;14.50;98.40
63383;DHT22;49512;48.744;9.176;2023-04-03T02:35:44;14.50;98.50
63383;DHT22;49512;48.744;9.176;2023-04-03T02:38:11;14.50;98.50
63383;DHT22;49512;48.744;9.176;2023-04-03T02:40:37;14.50;98.50
63383;DHT22;49512;48.744;9.176;2023-04-03T02:43:02;14.40;98.50
63383;DHT22;49512;48.744;9.176;2023-04-03T02:45:28;14.40;99.00
63383;DHT22;49512;48.744;9.176;2023-04-03T02:47:53;14.50;98.60
63383;DHT22;49512;48.744;9.176;2023-04-03T02:50:19;14.40;98.50
63383;DHT22;49512;48.744;9.176;2023-04-03T02:52:44;14.50;98.60
63383;DHT22;49512;48.744;9.176;2023-04-03T02:55:12;14.40;98.60
63383;DHT22;49512;48.744;9.176;2023-04-03T02:57:38;14.40;98.50
63383;DHT22;49512;48.744;9.176;2023-04-03T03:00:04;14.50;98.50
63383;DHT22;49512;48.744;9.176;2023-04-03T03:02:29;14.40;98.50
63383;DHT22;49512;48.744;9.176;2023-04-03T03:04:55;14.40;98.40
63383;DHT22;49512;48.744;9.176;2023-04-03T03:07:20;14.40;98.40
63383;DHT22;49512;48.744;9.176;2023-04-03T03:09:46;14.40;98.30
63383;DHT22;49512;48.744;9.176;2023-04-03T03:12:11;14.40;98.30
63383;DHT22;49512;48.744;9.176;2023-04-03T03:14:36;14.40;98.30
63383;DHT22;49512;48.744;9.176;2023-04-03T03:17:02;14.40;98.20
63383;DHT22;49512;48.744;9.176;2023-04-03T03:19:27;14.40;98.20
63383;DHT22;49512;48.744;9.176;2023-04-03T03:21:53;14.40;98.20
63383;DHT22;49512;48.744;9.176;2023-04-03T03:24:18;14.40;98.20
63383;DHT22;49512;48.744;9.176;2023-04-03T03:26:44;14.40;98.10
63383;DHT22;49512;48.744;9.176;2023-04-03T03:29:10;14.40;98.00
63383;DHT22;49512;48.744;9.176;2023-04-03T03:31:35;14.30;98.40
63383;DHT22;49512;48.744;9.176;2023-04-03T03:34:00;14.40;98.40
63383;DHT22;49512;48.744;9.176;2023-04-03T03:36:26;14.40;97.90
63383;DHT22;49512;48.744;9.176;2023-04-03T03:38:51;14.40;97.80
63383;DHT22;49512;48.744;9.176;2023-04-03T03:41:17;14.40;97.90
63383;DHT22;49512;48.744;9.176;2023-04-03T03:43:43;14.40;97.80
63383;DHT22;49512;48.744;9.176;2023-04-03T03:46:08;14.40;97.80
63383;DHT22;49512;48.744;9.176;2023-04-03T03:48:33;14.40;97.80
63383;DHT22;49512;48.744;9.176;2023-04-03T03:50:59;15.00;98.30
63383;DHT22;49512;48.744;9.176;2023-04-03T03:53:25;14.40;98.20
63383;DHT22;49512;48.744;9.176;2023-04-03T03:55:50;14.40;97.70
63383;DHT22;49512;48.744;9.176;2023-04-03T03:58:16;14.40;97.70
63383;DHT22;49512;48.744;9.176;2023-04-03T04:00:41;14.40;97.70
63383;DHT22;49512;48.744;9.176;2023-04-03T04:03:07;14.40;97.80
63383;DHT22;49512;48.744;9.176;2023-04-03T04:05:32;14.30;97.90
63383;DHT22;49512;48.744;9.176;2023-04-03T04:07:58;14.40;97.80
63383;DHT22;49512;48.744;9.176;2023-04-03T04:10:23;14.30;97.80
63383;DHT22;49512;48.744;9.176;2023-04-03T04:12:49;14.30;97.80
63383;DHT22;49512;48.744;9.176;2023-04-03T04:15:16;14.30;97.80
63383;DHT22;49512;48.744;9.176;2023-04-03T04:17:42;14.30;97.90
63383;DHT22;49512;48.744;9.176;2023-04-03T04:20:07;14.30;97.90
63383;DHT22;49512;48.744;9.176;2023-04-03T04:22:33;14.30;97.90
63383;DHT22;49512;48.744;9.176;2023-04-03T04:24:59;14.30;97.90
63383;DHT22;49512;48.744;9.176;2023-04-03T04:27:25;14.30;97.90
63383;DHT22;49512;48.744;9.176;2023-04-03T04:29:50;14.30;97.90
63383;DHT22;49512;48.744;9.176;2023-04-03T04:32:16;14.30;97.90
63383;DHT22;49512;48.744;9.176;2023-04-03T04:34:41;14.30;97.80
63383;DHT22;49512;48.744;9.176;2023-04-03T04:37:07;14.30;97.80
63383;DHT22;49512;48.744;9.176;2023-04-03T04:39:32;14.40;97.90
63383;DHT22;49512;48.744;9.176;2023-04-03T04:41:58;14.30;98.00
63383;DHT22;49512;48.744;9.176;2023-04-03T04:44:23;14.30;98.30
63383;DHT22;49512;48.744;9.176;2023-04-03T04:46:49;14.40;98.70
63383;DHT22;49512;48.744;9.176;2023-04-03T04:49:14;14.40;99.10
63383;DHT22;49512;48.744;9.176;2023-04-03T04:51:43;14.30;99.20
63383;DHT22;49512;48.744;9.176;2023-04-03T04:54:08;14.30;99.40
63383;DHT22;49512;48.744;9.176;2023-04-03T04:56:33;14.30;99.50
63383;DHT22;49512;48.744;9.176;2023-04-03T04:58:59;14.40;99.90
63383;DHT22;49512;48.744;9.176;2023-04-03T05:01:25;14.30;99.90
63383;DHT22;49512;48.744;9.176;2023-04-03T05:03:50;14.40;99.90
63383;DHT22;49512;48.744;9.176;2023-04-03T05:06:16;14.30;99.90
63383;DHT22;49512;48.744;9.176;2023-04-03T05:08:41;14.30;99.90
63383;DHT22;49512;48.744;9.176;2023-04-03T05:11:07;14.30;99.90
63383;DHT22;49512;48.744;9.176;2023-04-03T05:13:32;14.30;99.90
63383;DHT22;49512;48.744;9.176;2023-04-03T05:15:58;14.30;99.90
63383;DHT22;49512;48.744;9.176;2023-04-03T05:18:24;14.30;99.90
63383;DHT22;49512;48.744;9.176;2023-04-03T05:20:51;14.30;99.90
63383;DHT22;49512;48.744;9.176;2023-04-03T05:23:17;14.30;99.90
63383;DHT22;49512;48.744;9.176;2023-04-03T05:25:43;14.30;99.90
63383;DHT22;49512;48.744;9.176;2023-04-03T05:28:10;14.30;99.90
63383;DHT22;49512;48.744;9.176;2023-04-03T05:30:36;14.30;99.90
63383;DHT22;49512;48.744;9.176;2023-04-03T05:33:01;14.20;99.90
63383;DHT22;49512;48.744;9.176;2023-04-03T05:35:27;14.20;99.90
63383;DHT22;49512;48.744;9.176;2023-04-03T05:37:52;14.20;99.90
63383;DHT22;49512;48.744;9.176;2023-04-03T05:40:18;14.30;99.90
63383;DHT22;49512;48.744;9.176;2023-04-03T05:42:44;14.40;99.90
63383;DHT22;49512;48.744;9.176;2023-04-03T05:45:09;14.20;99.90
63383;DHT22;49512;48.744;9.176;2023-04-03T05:47:35;14.20;99.90
63383;DHT22;49512;48.744;9.176;2023-04-03T05:50:00;14.20;99.90
63383;DHT22;49512;48.744;9.176;2023-04-03T05:52:27;14.20;99.90
63383;DHT22;49512;48.744;9.176;2023-04-03T05:54:53;14.20;99.90
63383;DHT22;49512;48.744;9.176;2023-04-03T05:57:18;14.20;99.90
63383;DHT22;49512;48.744;9.176;2023-04-03T05:59:45;14.20;99.90
63383;DHT22;49512;48.744;9.176;2023-04-03T06:02:12;14.80;99.90
63383;DHT22;49512;48.744;9.176;2023-04-03T06:04:38;14.20;99.90
63383;DHT22;49512;48.744;9.176;2023-04-03T06:07:03;14.20;99.90
63383;DHT22;49512;48.744;9.176;2023-04-03T06:09:29;14.20;99.90
63383;DHT22;49512;48.744;9.176;2023-04-03T06:11:55;14.20;99.90
63383;DHT22;49512;48.744;9.176;2023-04-03T06:14:24;15.40;99.90
63383;DHT22;49512;48.744;9.176;2023-04-03T06:16:49;14.20;99.90
63383;DHT22;49512;48.744;9.176;2023-04-03T06:19:14;14.20;99.90
63383;DHT22;49512;48.744;9.176;2023-04-03T06:21:40;14.20;99.90
63383;DHT22;49512;48.744;9.176;2023-04-03T06:24:06;14.20;99.90
63383;DHT22;49512;48.744;9.176;2023-04-03T06:26:32;14.20;99.80
63383;DHT22;49512;48.744;9.176;2023-04-03T06:28:58;14.30;99.80
63383;DHT22;49512;48.744;9.176;2023-04-03T06:31:23;14.30;99.90
63383;DHT22;49512;48.744;9.176;2023-04-03T06:33:49;14.30;99.90
63383;DHT22;49512;48.744;9.176;2023-04-03T06:36:15;14.20;99.70
63383;DHT22;49512;48.744;9.176;2023-04-03T06:38:44;14.20;99.70
63383;DHT22;49512;48.744;9.176;2023-04-03T06:41:10;14.20;99.70
63383;DHT22;49512;48.744;9.176;2023-04-03T06:43:36;14.20;99.90
63383;DHT22;49512;48.744;9.176;2023-04-03T06:46:02;14.30;99.90
63383;DHT22;49512;48.744;9.176;2023-04-03T06:48:27;14.20;99.60
63383;DHT22;49512;48.744;9.176;2023-04-03T06:50:53;14.20;99.60
63383;DHT22;49512;48.744;9.176;2023-04-03T06:53:18;14.30;99.90
63383;DHT22;49512;48.744;9.176;2023-04-03T06:55:44;14.20;99.50
63383;DHT22;49512;48.744;9.176;2023-04-03T06:58:10;14.20;99.40
63383;DHT22;49512;48.744;9.176;2023-04-03T07:00:35;14.20;99.40
63383;DHT22;49512;48.744;9.176;2023-04-03T07:03:01;14.20;99.50
63383;DHT22;49512;48.744;9.176;2023-04-03T07:05:26;14.20;99.40
63383;DHT22;49512;48.744;9.176;2023-04-03T07:07:52;14.20;99.50
63383;DHT22;49512;48.744;9.176;2023-04-03T07:10:18;14.20;99.50
63383;DHT22;49512;48.744;9.176;2023-04-03T07:12:43;14.20;99.50
63383;DHT22;49512;48.744;9.176;2023-04-03T07:15:09;14.20;99.50
63383;DHT22;49512;48.744;9.176;2023-04-03T07:17:34;14.20;99.90
63383;DHT22;49512;48.744;9.176;2023-04-03T07:20:01;14.20;99.60
63383;DHT22;49512;48.744;9.176;2023-04-03T07:22:26;14.20;99.90
63383;DHT22;49512;48.744;9.176;2023-04-03T07:24:52;14.20;99.50
63383;DHT22;49512;48.744;9.176;2023-04-03T07:27:17;14.20;99.50
63383;DHT22;49512;48.744;9.176;2023-04-03T07:29:43;14.20;99.60
63383;DHT22;49512;48.744;9.176;2023-04-03T07:32:09;14.50;99.60
63383;DHT22;49512;48.744;9.176;2023-04-03T07:34:35;14.20;99.60
63383;DHT22;49512;48.744;9.176;2023-04-03T07:37:01;14.20;99.90
63383;DHT22;49512;48.744;9.176;2023-04-03T07:39:28;14.20;99.60
63383;DHT22;49512;48.744;9.176;2023-04-03T07:41:53;14.20;99.50
63383;DHT22;49512;48.744;9.176;2023-04-03T07:44:20;14.10;99.50
63383;DHT22;49512;48.744;9.176;2023-04-03T07:46:46;14.10;99.50
63383;DHT22;49512;48.744;9.176;2023-04-03T07:49:12;14.20;99.50
63383;DHT22;49512;48.744;9.176;2023-04-03T07:51:37;14.20;99.40
63383;DHT22;49512;48.744;9.176;2023-04-03T07:54:03;14.20;99.30
63383;DHT22;49512;48.744;9.176;2023-04-03T07:56:29;14.10;99.40
63383;DHT22;49512;48.744;9.176;2023-04-03T07:58:54;14.20;99.40
63383;DHT22;49512;48.744;9.176;2023-04-03T08:01:20;14.20;99.40
63383;DHT22;49512;48.744;9.176;2023-04-03T08:03:45;14.20;99.50
63383;DHT22;49512;48.744;9.176;2023-04-03T08:06:11;14.10;99.40
63383;DHT22;49512;48.744;9.176;2023-04-03T08:08:37;14.20;99.30
63383;DHT22;49512;48.744;9.176;2023-04-03T08:11:03;14.20;99.30
63383;DHT22;49512;48.744;9.176;2023-04-03T08:13:30;14.20;99.30
63383;DHT22;49512;48.744;9.176;2023-04-03T08:15:56;14.20;99.50
63383;DHT22;49512;48.744;9.176;2023-04-03T08:18:22;14.20;99.70
63383;DHT22;49512;48.744;9.176;2023-04-03T08:20:50;14.20;99.70
63383;DHT22;49512;48.744;9.176;2023-04-03T08:23:15;14.20;99.80
63383;DHT22;49512;48.744;9.176;2023-04-03T08:25:42;14.20;99.80
63383;DHT22;49512;48.744;9.176;2023-04-03T08:28:08;14.20;99.90
63383;DHT22;49512;48.744;9.176;2023-04-03T08:30:33;14.20;99.90
63383;DHT22;49512;48.744;9.176;2023-04-03T08:33:00;15.00;99.90
63383;DHT22;49512;48.744;9.176;2023-04-03T08:35:26;14.10;99.90
63383;DHT22;49512;48.744;9.176;2023-04-03T08:37:51;14.20;99.90
63383;DHT22;49512;48.744;9.176;2023-04-03T08:40:17;14.10;99.90
63383;DHT22;49512;48.744;9.176;2023-04-03T08:45:15;14.10;99.90
63383;DHT22;49512;48.744;9.176;2023-04-03T08:47:43;14.10;99.90
63383;DHT22;49512;48.744;9.176;2023-04-03T08:50:12;14.10;99.90
63383;DHT22;49512;48.744;9.176;2023-04-03T08:52:41;14.10;99.90
63383;DHT22;49512;48.744;9.176;2023-04-03T08:55:20;14.10;99.90
63383;DHT22;49512;48.744;9.176;2023-04-03T08:57:47;14.10;99.90
63383;DHT22;49512;48.744;9.176;2023-04-03T09:02:41;14.10;99.90
63383;DHT22;49512;48.744;9.176;2023-04-03T09:05:50;14.70;99.90
63383;DHT22;49512;48.744;9.176;2023-04-03T09:08:00;14.10;99.70
63383;DHT22;49512;48.744;9.176;2023-04-03T09:10:30;14.10;99.60
63383;DHT22;49512;48.744;9.176;2023-04-03T09:13:00;14.10;99.60
63383;DHT22;49512;48.744;9.176;2023-04-03T09:15:26;14.10;99.60
63383;DHT22;49512;48.744;9.176;2023-04-03T09:23:17;14.10;99.80
63383;DHT22;49512;48.744;9.176;2023-04-03T09:25:43;14.10;99.80
63383;DHT22;49512;48.744;9.176;2023-04-03T09:28:09;14.10;99.50
63383;DHT22;49512;48.744;9.176;2023-04-03T09:30:35;14.00;99.50
63383;DHT22;49512;48.744;9.176;2023-04-03T09:33:01;14.00;99.40
63383;DHT22;49512;48.744;9.176;2023-04-03T09:35:33;14.00;99.40
63383;DHT22;49512;48.744;9.176;2023-04-03T09:40:36;14.10;99.60
63383;DHT22;49512;48.744;9.176;2023-04-03T09:45:41;14.10;99.40
63383;DHT22;49512;48.744;9.176;2023-04-03T09:48:08;14.10;99.00
63383;DHT22;49512;48.744;9.176;2023-04-03T09:50:34;14.00;99.30
63383;DHT22;49512;48.744;9.176;2023-04-03T09:53:04;14.10;98.80
63383;DHT22;49512;48.744;9.176;2023-04-03T09:55:30;14.10;98.90
63383;DHT22;49512;48.744;9.176;2023-04-03T09:57:57;14.20;99.90
63383;DHT22;49512;48.744;9.176;2023-04-03T10:00:24;14.10;99.90
63383;DHT22;49512;48.744;9.176;2023-04-03T10:02:51;14.10;99.90
63383;DHT22;49512;48.744;9.176;2023-04-03T10:08:40;13.90;92.60
63383;DHT22;49512;48.744;9.176;2023-04-03T10:10:48;13.90;94.50
63383;DHT22;49512;48.744;9.176;2023-04-03T10:13:27;13.90;95.00
63383;DHT22;49512;48.744;9.176;2023-04-03T10:16:03;14.40;95.00
63383;DHT22;49512;48.744;9.176;2023-04-03T10:20:54;13.90;95.20
63383;DHT22;49512;48.744;9.176;2023-04-03T10:23:28;14.00;95.30
63383;DHT22;49512;48.744;9.176;2023-04-03T10:28:45;14.00;95.90
63383;DHT22;49512;48.744;9.176;2023-04-03T10:36:37;14.10;98.90
63383;DHT22;49512;48.744;9.176;2023-04-03T10:42:18;14.20;99.90
63383;DHT22;49512;48.744;9.176;2023-04-03T10:46:52;13.00;99.90
63383;DHT22;49512;48.744;9.176;2023-04-03T10:49:27;14.20;99.90
63383;DHT22;49512;48.744;9.176;2023-04-03T10:54:37;14.20;99.90
63383;DHT22;49512;48.744;9.176;2023-04-03T10:57:04;14.10;99.90
63383;DHT22;49512;48.744;9.176;2023-04-03T10:59:47;14.10;99.90
63383;DHT22;49512;48.744;9.176;2023-04-03T11:02:19;14.10;99.90
63383;DHT22;49512;48.744;9.176;2023-04-03T11:04:48;14.10;99.90
63383;DHT22;49512;48.744;9.176;2023-04-03T11:09:42;14.00;99.90
63383;DHT22;49512;48.744;9.176;2023-04-03T11:14:40;14.00;99.90
63383;DHT22;49512;48.744;9.176;2023-04-03T11:19:34;14.00;99.90
63383;DHT22;49512;48.744;9.176;2023-04-03T11:22:22;14.00;99.90
63383;DHT22;49512;48.744;9.176;2023-04-03T11:24:46;14.00;99.90
63383;DHT22;49512;48.744;9.176;2023-04-03T11:27:19;14.30;99.90
63383;DHT22;49512;48.744;9.176;2023-04-03T11:29:47;14.00;99.90
63383;DHT22;49512;48.744;9.176;2023-04-03T11:34:59;14.00;99.90
63383;DHT22;49512;48.744;9.176;2023-04-03T11:42:38;14.00;99.90
63383;DHT22;49512;48.744;9.176;2023-04-03T11:45:46;14.00;99.90
63383;DHT22;49512;48.744;9.176;2023-04-03T11:47:57;13.90;99.90
63383;DHT22;49512;48.744;9.176;2023-04-03T12:03:29;14.00;99.90
63383;DHT22;49512;48.744;9.176;2023-04-03T12:13:33;14.00;99.90
63383;DHT22;49512;48.744;9.176;2023-04-03T12:15:59;13.90;99.90
63383;DHT22;49512;48.744;9.176;2023-04-03T12:18:40;13.90;99.90
63383;DHT22;49512;48.744;9.176;2023-04-03T12:21:06;13.90;99.90
63383;DHT22;49512;48.744;9.176;2023-04-03T12:23:33;13.90;99.90
63383;DHT22;49512;48.744;9.176;2023-04-03T12:26:01;13.90;99.90
63383;DHT22;49512;48.744;9.176;2023-04-03T12:28:29;13.90;99.90
63383;DHT22;49512;48.744;9.176;2023-04-03T12:30:54;13.90;99.90
63383;DHT22;49512;48.744;9.176;2023-04-03T12:33:27;13.90;99.90
63383;DHT22;49512;48.744;9.176;2023-04-03T12:35:58;13.90;99.90
63383;DHT22;49512;48.744;9.176;2023-04-03T12:38:37;13.90;99.90
63383;DHT22;49512;48.744;9.176;2023-04-03T12:41:15;13.90;99.90
63383;DHT22;49512;48.744;9.176;2023-04-03T12:48:37;13.90;99.90
63383;DHT22;49512;48.744;9.176;2023-04-03T12:51:03;13.90;99.90
63383;DHT22;49512;48.744;9.176;2023-04-03T12:53:31;13.90;99.90
63383;DHT22;49512;48.744;9.176;2023-04-03T12:56:19;13.90;99.90
63383;DHT22;49512;48.744;9.176;2023-04-03T12:58:45;13.90;99.90
63383;DHT22;49512;48.744;9.176;2023-04-03T13:01:16;13.90;99.90
63383;DHT22;49512;48.744;9.176;2023-04-03T13:03:44;13.90;99.90
63383;DHT22;49512;48.744;9.176;2023-04-03T13:06:13;13.90;99.90
63383;DHT22;49512;48.744;9.176;2023-04-03T13:08:47;13.90;99.90
63383;DHT22;49512;48.744;9.176;2023-04-03T13:11:13;13.90;99.90
63383;DHT22;49512;48.744;9.176;2023-04-03T13:13:39;13.90;99.90
63383;DHT22;49512;48.744;9.176;2023-04-03T13:16:09;13.80;99.90
63383;DHT22;49512;48.744;9.176;2023-04-03T13:18:35;13.90;99.90
63383;DHT22;49512;48.744;9.176;2023-04-03T13:23:27;13.80;99.90
63383;DHT22;49512;48.744;9.176;2023-04-03T13:25:52;13.90;99.90
63383;DHT22;49512;48.744;9.176;2023-04-03T13:28:22;13.90;99.90
63383;DHT22;49512;48.744;9.176;2023-04-03T13:31:23;13.90;99.90
63383;DHT22;49512;48.744;9.176;2023-04-03T13:36:30;14.00;99.90
63383;DHT22;49512;48.744;9.176;2023-04-03T13:41:39;14.00;99.90
63383;DHT22;49512;48.744;9.176;2023-04-03T13:52:03;13.90;99.90
63383;DHT22;49512;48.744;9.176;2023-04-03T13:54:43;13.90;99.90
63383;DHT22;49512;48.744;9.176;2023-04-03T13:57:15;13.90;99.90
63383;DHT22;49512;48.744;9.176;2023-04-03T13:59:41;14.00;99.90
63383;DHT22;49512;48.744;9.176;2023-04-03T14:02:12;13.90;99.90
63383;DHT22;49512;48.744;9.176;2023-04-03T14:07:05;13.90;99.90
63383;DHT22;49512;48.744;9.176;2023-04-03T14:09:34;14.00;99.90
63383;DHT22;49512;48.744;9.176;2023-04-03T14:12:02;15.20;99.90
63383;DHT22;49512;48.744;9.176;2023-04-03T14:14:31;14.00;99.90
63383;DHT22;49512;48.744;9.176;2023-04-03T14:16:58;13.90;99.90
63383;DHT22;49512;48.744;9.176;2023-04-03T14:21:51;14.00;99.60
63383;DHT22;49512;48.744;9.176;2023-04-03T14:24:18;13.90;99.40
63383;DHT22;49512;48.744;9.176;2023-04-03T14:26:44;13.90;99.40
63383;DHT22;49512;48.744;9.176;2023-04-03T14:29:11;14.00;99.00
63383;DHT22;49512;48.744;9.176;2023-04-03T14:31:36;14.00;99.00
63383;DHT22;49512;48.744;9.176;2023-04-03T14:34:02;14.00;99.00
63383;DHT22;49512;48.744;9.176;2023-04-03T14:36:28;14.00;98.80
63383;DHT22;49512;48.744;9.176;2023-04-03T14:38:54;14.00;98.90
63383;DHT22;49512;48.744;9.176;2023-04-03T14:41:22;13.10;98.70
63383;DHT22;49512;48.744;9.176;2023-04-03T14:43:48;14.00;99.00
63383;DHT22;49512;48.744;9.176;2023-04-03T14:46:14;14.00;99.00
63383;DHT22;49512;48.744;9.176;2023-04-03T14:48:41;14.10;99.10
63383;DHT22;49512;48.744;9.176;2023-04-03T14:51:08;14.00;99.10
63383;DHT22;49512;48.744;9.176;2023-04-03T14:53:35;14.10;99.40
63383;DHT22;49512;48.744;9.176;2023-04-03T14:56:01;14.00;99.40
63383;DHT22;49512;48.744;9.176;2023-04-03T14:58:27;14.10;99.60
63383;DHT22;49512;48.744;9.176;2023-04-03T15:00:52;14.00;99.60
63383;DHT22;49512;48.744;9.176;2023-04-03T15:03:19;13.90;99.80
63383;DHT22;49512;48.744;9.176;2023-04-03T15:05:45;13.90;99.80
63383;DHT22;49512;48.744;9.176;2023-04-03T15:08:19;13.80;99.00
63383;DHT22;49512;48.744;9.176;2023-04-03T15:10:45;13.80;99.00
63383;DHT22;49512;48.744;9.176;2023-04-03T15:13:11;13.80;98.50
63383;DHT22;49512;48.744;9.176;2023-04-03T15:15:37;13.80;98.10
63383;DHT22;49512;48.744;9.176;2023-04-03T15:18:02;13.90;98.30
63383;DHT22;49512;48.744;9.176;2023-04-03T15:20:28;13.80;98.40
63383;DHT22;49512;48.744;9.176;2023-04-03T15:22:56;13.90;98.60
63383;DHT22;49512;48.744;9.176;2023-04-03T15:25:22;13.90;98.80
63383;DHT22;49512;48.744;9.176;2023-04-03T15:27:48;13.90;98.80
63383;DHT22;49512;48.744;9.176;2023-04-03T15:30:15;13.90;98.70
63383;DHT22;49512;48.744;9.176;2023-04-03T15:32:41;13.90;98.60
63383;DHT22;49512;48.744;9.176;2023-04-03T15:35:06;13.90;98.60
63383;DHT22;49512;48.744;9.176;2023-04-03T15:37:32;13.90;98.70
63383;DHT22;49512;48.744;9.176;2023-04-03T15:39:57;13.90;98.70
63383;DHT22;49512;48.744;9.176;2023-04-03T15:42:23;13.90;98.80
63383;DHT22;49512;48.744;9.176;2023-04-03T15:44:48;13.80;98.40
63383;DHT22;49512;48.744;9.176;2023-04-03T15:47:14;13.80;98.20
63383;DHT22;49512;48.744;9.176;2023-04-03T15:49:39;13.90;98.30
63383;DHT22;49512;48.744;9.176;2023-04-03T15:52:05;13.80;98.30
63383;DHT22;49512;48.744;9.176;2023-04-03T15:54:31;13.80;98.20
63383;DHT22;49512;48.744;9.176;2023-04-03T15:56:56;13.80;98.10
63383;DHT22;49512;48.744;9.176;2023-04-03T15:59:22;13.90;97.90
63383;DHT22;49512;48.744;9.176;2023-04-03T16:01:48;13.80;97.80
63383;DHT22;49512;48.744;9.176;2023-04-03T16:04:14;13.90;97.80
63383;DHT22;49512;48.744;9.176;2023-04-03T16:06:40;13.80;97.70
63383;DHT22;49512;48.744;9.176;2023-04-03T16:09:06;13.90;97.70
63383;DHT22;49512;48.744;9.176;2023-04-03T16:11:31;13.80;97.90
63383;DHT22;49512;48.744;9.176;2023-04-03T16:13:57;13.90;97.60
63383;DHT22;49512;48.744;9.176;2023-04-03T16:16:23;13.80;97.40
63383;DHT22;49512;48.744;9.176;2023-04-03T16:18:49;13.90;97.20
63383;DHT22;49512;48.744;9.176;2023-04-03T16:21:15;13.90;97.20
63383;DHT22;49512;48.744;9.176;2023-04-03T16:23:41;13.90;97.20
63383;DHT22;49512;48.744;9.176;2023-04-03T16:26:07;13.80;97.30
63383;DHT22;49512;48.744;9.176;2023-04-03T16:28:32;13.90;97.50
63383;DHT22;49512;48.744;9.176;2023-04-03T16:30:57;13.80;97.40
63383;DHT22;49512;48.744;9.176;2023-04-03T16:33:24;13.90;97.50
63383;DHT22;49512;48.744;9.176;2023-04-03T16:35:50;13.80;97.70
63383;DHT22;49512;48.744;9.176;2023-04-03T16:38:17;13.90;97.60
63383;DHT22;49512;48.744;9.176;2023-04-03T16:40:44;13.80;97.50
63383;DHT22;49512;48.744;9.176;2023-04-03T16:43:10;13.80;97.60
63383;DHT22;49512;48.744;9.176;2023-04-03T16:45:35;13.80;97.50
63383;DHT22;49512;48.744;9.176;2023-04-03T16:48:01;13.90;97.50
63383;DHT22;49512;48.744;9.176;2023-04-03T16:50:27;13.80;97.50
63383;DHT22;49512;48.744;9.176;2023-04-03T16:52:53;13.90;97.60
63383;DHT22;49512;48.744;9.176;2023-04-03T16:55:18;13.80;97.50
63383;DHT22;49512;48.744;9.176;2023-04-03T16:57:45;13.80;97.60
63383;DHT22;49512;48.744;9.176;2023-04-03T17:00:10;13.90;97.60
63383;DHT22;49512;48.744;9.176;2023-04-03T17:02:36;13.80;97.60
63383;DHT22;49512;48.744;9.176;2023-04-03T17:05:02;13.90;97.70
63383;DHT22;49512;48.744;9.176;2023-04-03T17:07:28;13.90;97.90
63383;DHT22;49512;48.744;9.176;2023-04-03T17:09:53;13.90;98.00
63383;DHT22;49512;48.744;9.176;2023-04-03T17:12:19;13.90;98.20
63383;DHT22;49512;48.744;9.176;2023-04-03T17:14:45;13.90;98.30